Time;durP1;ratioP1;P1;durP2;ratioP2;P2;SDS_P1;SDS_P2;PMS_P1;PMS_P2;Temp;Humidity;BMP_temperature;BMP_pressure;BME280_temperature;BME280_humidity;BME280_pressure;Samples;Min_cycle;Max_cycle;Signal;HPM_P1;HPM_P2
2022/10/27 00:01:04;;;;;;;8.63;5.22;;;;;;;9.38;100.00;99347.69;4154222;28;20385;-73
2022/10/27 00:03:05;;;;;;;5.25;4.57;;;;;;;9.32;100.00;99341.59;4157195;28;20037;-73
2022/10/27 00:05:05;;;;;;;10.55;6.20;;;;;;;9.29;100.00;99356.09;4161701;28;20043;-73
2022/10/27 00:07:05;;;;;;;8.65;5.15;;;;;;;9.28;100.00;99346.19;4154859;28;20442;-74
2022/10/27 00:09:06;;;;;;;8.43;4.97;;;;;;;9.26;100.00;99354.81;4153542;28;20057;-74
2022/10/27 00:11:06;;;;;;;6.63;5.05;;;;;;;9.19;100.00;99353.81;4159211;28;20409;-73
2022/10/27 00:13:07;;;;;;;8.00;5.30;;;;;;;9.16;100.00;99358.06;4159016;28;20517;-74
2022/10/27 00:15:08;;;;;;;6.78;5.03;;;;;;;9.13;100.00;99352.44;4158605;28;20037;-73
2022/10/27 00:17:08;;;;;;;7.32;4.90;;;;;;;9.10;100.00;99358.63;4153950;28;20049;-73
2022/10/27 00:19:08;;;;;;;10.25;5.00;;;;;;;9.12;100.00;99364.63;4154421;28;20048;-73
2022/10/27 00:21:11;;;;;;;6.97;4.88;;;;;;;9.10;100.00;99364.16;4153275;28;20280;-73
2022/10/27 00:23:12;;;;;;;6.32;4.78;;;;;;;9.04;100.00;99362.81;4153360;28;20053;-74
2022/10/27 00:25:12;;;;;;;6.95;4.93;;;;;;;9.02;100.00;99365.91;4157196;28;20428;-73
2022/10/27 00:27:12;;;;;;;7.13;5.40;;;;;;;8.94;100.00;99364.88;4155915;28;20511;-73
2022/10/27 00:29:13;;;;;;;9.32;5.05;;;;;;;8.87;100.00;99364.66;4156636;28;20048;-73
2022/10/27 00:31:14;;;;;;;5.68;4.45;;;;;;;8.83;100.00;99363.72;4153668;28;20045;-73
2022/10/27 00:33:14;;;;;;;10.43;5.32;;;;;;;8.80;100.00;99361.66;4153494;28;20103;-73
2022/10/27 00:35:15;;;;;;;8.23;4.63;;;;;;;8.80;100.00;99366.38;4154348;28;20091;-74
2022/10/27 00:37:15;;;;;;;5.35;4.15;;;;;;;8.81;100.00;99365.22;4156953;28;20054;-74
2022/10/27 00:39:15;;;;;;;7.15;5.22;;;;;;;8.72;100.00;99365.31;4155599;28;20052;-73
2022/10/27 00:41:24;;;;;;;4.85;3.58;;;;;;;8.70;100.00;99373.94;4154751;28;20752;-74
2022/10/27 00:43:33;;;;;;;7.05;4.10;;;;;;;8.75;100.00;99367.38;4154456;28;20866;-73
2022/10/27 00:45:33;;;;;;;5.88;4.03;;;;;;;8.77;100.00;99373.38;4155765;28;20126;-73
2022/10/27 00:47:37;;;;;;;8.23;4.55;;;;;;;8.79;100.00;99381.31;4154413;28;20053;-73
2022/10/27 00:49:42;;;;;;;9.23;4.00;;;;;;;8.74;100.00;99379.56;4155932;28;20034;-73
2022/10/27 00:51:55;;;;;;;8.90;4.25;;;;;;;8.67;100.00;99379.34;4154637;28;20104;-73
2022/10/27 00:53:55;;;;;;;;;;;;;;;8.60;100.00;99385.41;4154788;28;20044;-73
2022/10/27 00:55:56;;;;;;;5.03;3.80;;;;;;;8.57;100.00;99386.13;4153425;28;20258;-73
2022/10/27 00:57:58;;;;;;;8.52;5.28;;;;;;;8.52;100.00;99382.75;4157597;28;20069;-73
2022/10/27 01:00:01;;;;;;;7.07;4.53;;;;;;;8.50;100.00;99385.88;4154313;28;20107;-73
2022/10/27 01:02:02;;;;;;;6.75;4.10;;;;;;;8.49;100.00;99383.47;4155657;28;20473;-73
2022/10/27 01:04:03;;;;;;;6.57;4.38;;;;;;;8.53;100.00;99392.66;4155315;28;20570;-73
2022/10/27 01:06:04;;;;;;;7.15;4.13;;;;;;;8.57;100.00;99385.31;4156999;28;20029;-73
2022/10/27 01:08:06;;;;;;;6.50;4.38;;;;;;;8.60;100.00;99390.13;4155272;28;20475;-73
2022/10/27 01:10:06;;;;;;;6.47;4.18;;;;;;;8.61;100.00;99389.00;4155537;28;20030;-73
2022/10/27 01:12:07;;;;;;;8.75;4.90;;;;;;;8.54;100.00;99386.00;4155852;28;20037;-73
2022/10/27 01:14:07;;;;;;;11.48;4.45;;;;;;;8.43;100.00;99383.66;4152828;28;20032;-73
2022/10/27 01:16:25;;;;;;;8.95;5.15;;;;;;;8.35;100.00;99389.28;4155696;28;20029;-73
2022/10/27 01:18:47;;;;;;;6.72;4.40;;;;;;;8.25;100.00;99398.75;4156529;28;20473;-73
2022/10/27 01:21:22;;;;;;;5.88;3.70;;;;;;;8.22;100.00;99404.97;4162650;28;20563;-73
2022/10/27 01:23:54;;;;;;;4.97;3.88;;;;;;;8.14;100.00;99403.91;4161493;28;20060;-73
2022/10/27 01:26:23;;;;;;;8.82;3.90;;;;;;;8.09;100.00;99404.09;4162236;28;20144;-73
2022/10/27 01:28:36;;;;;;;5.70;4.38;;;;;;;8.09;100.00;99406.84;4163675;28;20060;-73
2022/10/27 01:31:12;;;;;;;6.03;3.83;;;;;;;8.07;100.00;99402.84;4159109;28;20069;-73
2022/10/27 01:33:20;;;;;;;4.55;3.28;;;;;;;8.02;100.00;99403.84;4155265;28;20589;-73
2022/10/27 01:35:52;;;;;;;5.60;4.07;;;;;;;7.98;100.00;99402.13;4157976;28;20136;-73
2022/10/27 01:38:04;;;;;;;7.35;4.10;;;;;;;7.99;100.00;99401.78;4155935;28;20171;-73
2022/10/27 01:40:15;;;;;;;4.93;3.40;;;;;;;8.04;100.00;99407.09;4160052;28;20088;-73
2022/10/27 01:42:26;;;;;;;5.25;3.75;;;;;;;8.10;100.00;99402.16;4156139;28;20379;-73
2022/10/27 01:44:37;;;;;;;6.38;3.50;;;;;;;8.11;100.00;99398.28;4158837;28;20041;-73
2022/10/27 01:46:38;;;;;;;5.70;3.67;;;;;;;8.06;100.00;99404.78;4159412;28;20301;-73
2022/10/27 01:48:38;;;;;;;6.10;3.90;;;;;;;8.01;100.00;99402.22;4159281;28;20033;-73
2022/10/27 01:50:41;;;;;;;6.78;4.18;;;;;;;8.03;100.00;99407.44;4160489;28;20045;-73
2022/10/27 01:52:44;;;;;;;10.35;4.65;;;;;;;8.04;100.00;99406.28;4158341;28;20547;-73
2022/10/27 01:54:44;;;;;;;6.43;4.35;;;;;;;8.00;100.00;99405.34;4157645;28;20072;-73
2022/10/27 01:57:26;;;;;;;4.70;3.58;;;;;;;7.95;100.00;99405.56;4156836;28;20512;-73
2022/10/27 01:59:58;;;;;;;6.85;4.25;;;;;;;7.91;100.00;99408.16;4161796;28;20354;-73
2022/10/27 02:02:17;;;;;;;7.35;4.45;;;;;;;7.88;100.00;99395.06;4158201;28;20058;-73
2022/10/27 02:04:29;;;;;;;5.63;3.67;;;;;;;7.85;100.00;99399.28;4155358;28;20059;-73
2022/10/27 02:06:41;;;;;;;10.32;4.38;;;;;;;7.80;100.00;99399.53;4161254;28;20539;-74
2022/10/27 02:09:03;;;;;;;4.80;3.90;;;;;;;7.79;100.00;99402.63;4157180;28;20432;-73
2022/10/27 02:11:05;;;;;;;8.50;4.50;;;;;;;7.77;100.00;99399.38;4157242;28;20068;-73
2022/10/27 02:13:06;;;;;;;;;;;;;;;7.76;100.00;99400.50;4157862;28;20374;-73
2022/10/27 02:15:35;;;;;;;6.93;4.03;;;;;;;7.76;100.00;99400.50;4157365;28;20404;-73
2022/10/27 02:17:42;;;;;;;3.63;2.78;;;;;;;7.74;100.00;99406.38;4158319;28;20043;-73
2022/10/27 02:19:45;;;;;;;4.72;3.65;;;;;;;7.72;100.00;99388.56;4161353;28;20489;-73
2022/10/27 02:21:50;;;;;;;5.40;3.88;;;;;;;7.71;100.00;99393.28;4161732;28;20347;-73
2022/10/27 02:23:52;;;;;;;6.20;3.75;;;;;;;7.70;100.00;99399.94;4161095;28;20051;-73
2022/10/27 02:26:01;;;;;;;7.45;4.53;;;;;;;7.62;100.00;99397.25;4158047;28;20098;-73
2022/10/27 02:28:06;;;;;;;4.90;4.10;;;;;;;7.54;100.00;99402.47;4161058;28;20050;-73
2022/10/27 02:30:07;;;;;;;7.28;4.95;;;;;;;7.51;100.00;99402.31;4159136;28;20029;-73
2022/10/27 02:32:12;;;;;;;8.32;4.50;;;;;;;7.45;100.00;99403.69;4155705;28;20292;-73
2022/10/27 02:34:15;;;;;;;6.07;4.40;;;;;;;7.38;100.00;99403.41;4157285;28;20147;-73
2022/10/27 02:36:15;;;;;;;5.75;3.92;;;;;;;7.29;100.00;99398.78;4155585;28;20033;-73
2022/10/27 02:38:16;;;;;;;5.78;4.22;;;;;;;7.29;100.00;99407.03;4156120;28;20036;-73
2022/10/27 02:40:16;;;;;;;6.07;4.35;;;;;;;7.24;100.00;99396.19;4155662;28;20377;-73
2022/10/27 02:42:16;;;;;;;9.57;4.50;;;;;;;7.22;100.00;99397.69;4155290;28;20032;-73
2022/10/27 02:44:16;;;;;;;8.27;4.50;;;;;;;7.24;100.00;99404.47;4154851;28;20144;-73
2022/10/27 02:46:17;;;;;;;8.48;4.32;;;;;;;7.22;100.00;99406.75;4155122;28;20029;-73
2022/10/27 02:48:18;;;;;;;7.78;4.75;;;;;;;7.17;100.00;99400.63;4156946;28;20041;-73
2022/10/27 02:50:18;;;;;;;6.53;4.30;;;;;;;7.20;100.00;99402.69;4155170;28;20106;-73
2022/10/27 02:52:18;;;;;;;5.57;4.13;;;;;;;7.18;100.00;99396.72;4159708;28;20032;-73
2022/10/27 02:54:18;;;;;;;11.45;5.30;;;;;;;7.16;100.00;99404.50;4156019;28;20138;-73
2022/10/27 02:56:19;;;;;;;8.75;5.20;;;;;;;7.12;100.00;99409.09;4157344;28;20029;-73
2022/10/27 02:58:19;;;;;;;7.05;4.70;;;;;;;7.07;100.00;99407.31;4154813;28;20033;-73
2022/10/27 03:00:19;;;;;;;9.07;5.25;;;;;;;7.03;100.00;99400.84;4158139;28;20075;-73
2022/10/27 03:02:21;;;;;;;8.48;5.18;;;;;;;7.04;100.00;99399.72;4156870;28;20037;-73
2022/10/27 03:04:22;;;;;;;7.18;5.00;;;;;;;7.03;100.00;99404.44;4155242;28;20038;-73
2022/10/27 03:06:22;;;;;;;6.28;4.20;;;;;;;7.09;100.00;99407.78;4158876;28;20064;-73
2022/10/27 03:08:22;;;;;;;6.63;4.40;;;;;;;7.09;100.00;99407.78;4155224;28;20126;-73
2022/10/27 03:10:22;;;;;;;5.90;3.97;;;;;;;7.02;100.00;99411.03;4155012;28;20048;-73
2022/10/27 03:12:23;;;;;;;7.07;4.63;;;;;;;6.95;100.00;99404.44;4155319;28;20038;-73
2022/10/27 03:14:23;;;;;;;8.45;4.85;;;;;;;6.91;100.00;99411.75;4156862;28;20075;-73
2022/10/27 03:16:23;;;;;;;9.57;5.07;;;;;;;6.90;100.00;99416.47;4155592;28;20049;-73
2022/10/27 03:18:24;;;;;;;7.38;4.30;;;;;;;6.85;100.00;99410.31;4157902;28;20049;-73
2022/10/27 03:20:24;;;;;;;7.05;4.38;;;;;;;6.80;100.00;99408.59;4154649;28;20041;-73
2022/10/27 03:22:24;;;;;;;8.48;5.18;;;;;;;6.79;100.00;99417.16;4154453;28;20045;-73
2022/10/27 03:24:24;;;;;;;8.88;4.97;;;;;;;6.72;100.00;99406.69;4159336;28;20280;-73
2022/10/27 03:26:25;;;;;;;7.15;4.60;;;;;;;6.68;100.00;99412.00;4158431;28;20042;-73
2022/10/27 03:28:26;;;;;;;8.30;4.75;;;;;;;6.70;100.00;99428.19;4156383;28;20474;-73
2022/10/27 03:30:26;;;;;;;5.10;4.00;;;;;;;6.74;100.00;99418.94;4154476;28;20052;-73
2022/10/27 03:32:26;;;;;;;5.93;4.32;;;;;;;6.78;100.00;99424.59;4160748;28;20376;-73
2022/10/27 03:34:26;;;;;;;6.93;4.57;;;;;;;6.74;100.00;99429.94;4154552;28;20052;-73
2022/10/27 03:36:27;;;;;;;8.27;5.45;;;;;;;6.71;100.00;99422.38;4154732;28;20029;-73
2022/10/27 03:38:27;;;;;;;7.47;4.20;;;;;;;6.63;100.00;99423.22;4155239;28;20239;-73
2022/10/27 03:40:28;;;;;;;8.57;4.05;;;;;;;6.59;100.00;99427.75;4154442;28;20172;-73
2022/10/27 03:42:28;;;;;;;6.90;4.28;;;;;;;6.52;100.00;99426.63;4154262;28;20049;-73
2022/10/27 03:44:29;;;;;;;6.82;5.07;;;;;;;6.47;100.00;99433.13;4155505;28;20053;-73
2022/10/27 03:46:29;;;;;;;10.25;4.68;;;;;;;6.48;100.00;99437.47;4154676;28;20048;-73
2022/10/27 03:48:29;;;;;;;6.53;4.15;;;;;;;6.46;100.00;99426.81;4153624;28;20370;-73
2022/10/27 03:50:30;;;;;;;6.80;4.43;;;;;;;6.52;100.00;99443.13;4154707;28;20046;-73
2022/10/27 03:52:30;;;;;;;7.55;5.18;;;;;;;6.60;100.00;99443.09;4156346;28;20459;-73
2022/10/27 03:54:31;;;;;;;5.07;3.58;;;;;;;6.62;100.00;99446.34;4154213;28;20508;-73
2022/10/27 03:56:31;;;;;;;4.45;3.45;;;;;;;6.61;100.00;99438.41;4154389;28;20041;-73
2022/10/27 03:58:32;;;;;;;10.95;5.15;;;;;;;6.58;100.00;99444.56;4155067;28;20274;-73
2022/10/27 04:00:32;;;;;;;9.52;3.67;;;;;;;6.64;100.00;99448.75;4156290;28;20037;-73
2022/10/27 04:02:32;;;;;;;4.80;3.83;;;;;;;6.66;100.00;99443.75;4153771;28;20075;-73
2022/10/27 04:04:33;;;;;;;5.63;4.13;;;;;;;6.66;100.00;99443.75;4155060;28;20076;-73
2022/10/27 04:06:33;;;;;;;4.55;3.50;;;;;;;6.60;100.00;99440.34;4154766;28;20052;-73
2022/10/27 04:08:33;;;;;;;5.53;3.78;;;;;;;6.56;100.00;99444.09;4154387;28;20306;-73
2022/10/27 04:10:33;;;;;;;5.85;3.67;;;;;;;6.51;100.00;99453.31;4155722;28;20377;-73
2022/10/27 04:12:34;;;;;;;7.90;3.70;;;;;;;6.44;100.00;99437.31;4152908;28;20119;-73
2022/10/27 04:14:34;;;;;;;5.80;4.00;;;;;;;6.42;100.00;99441.53;4153759;28;20042;-73
2022/10/27 04:16:34;;;;;;;5.45;4.07;;;;;;;6.39;100.00;99447.69;4154405;28;20079;-73
2022/10/27 04:18:34;;;;;;;4.93;3.70;;;;;;;6.37;100.00;99453.53;4153837;28;20104;-73
2022/10/27 04:20:35;;;;;;;8.23;4.40;;;;;;;6.43;100.00;99448.66;4154791;28;20041;-73
2022/10/27 04:22:35;;;;;;;6.25;3.33;;;;;;;6.44;100.00;99458.50;4153149;28;20068;-73
2022/10/27 04:24:39;;;;;;;4.45;3.55;;;;;;;6.41;100.00;99457.22;4153099;28;20469;-73
2022/10/27 04:26:39;;;;;;;10.70;3.88;;;;;;;6.44;100.00;99455.75;4157585;28;20465;-73
2022/10/27 04:28:39;;;;;;;4.82;3.30;;;;;;;6.44;100.00;99453.00;4156163;28;20167;-73
2022/10/27 04:30:40;;;;;;;5.00;3.97;;;;;;;6.44;100.00;99458.50;4156333;28;20060;-73
2022/10/27 04:32:40;;;;;;;4.80;3.55;;;;;;;6.41;100.00;99454.47;4158081;28;20045;-73
2022/10/27 04:34:40;;;;;;;5.60;3.72;;;;;;;6.35;100.00;99450.28;4156580;28;20469;-73
2022/10/27 04:36:40;;;;;;;7.15;4.30;;;;;;;6.29;100.00;99450.75;4156331;28;20050;-73
2022/10/27 04:38:41;;;;;;;6.82;4.60;;;;;;;6.27;100.00;99448.34;4157700;28;20715;-73
2022/10/27 04:40:41;;;;;;;7.13;4.22;;;;;;;6.24;100.00;99450.94;4154218;28;20042;-73
2022/10/27 04:42:47;;;;;;;6.65;4.75;;;;;;;6.21;100.00;99449.66;4152302;28;20435;-73
2022/10/27 04:44:48;;;;;;;10.23;4.47;;;;;;;6.21;100.00;99460.66;4159780;28;20060;-73
2022/10/27 04:46:48;;;;;;;7.95;5.05;;;;;;;6.17;100.00;99465.97;4154778;28;20452;-73
2022/10/27 04:48:48;;;;;;;8.63;4.50;;;;;;;6.12;100.00;99457.94;4154706;28;20037;-73
2022/10/27 04:50:49;;;;;;;10.25;4.57;;;;;;;6.08;100.00;99459.69;4155207;28;20044;-73
2022/10/27 04:52:54;;;;;;;8.80;5.30;;;;;;;6.03;100.00;99459.03;4160385;28;20053;-73
2022/10/27 04:54:54;;;;;;;10.57;5.45;;;;;;;6.00;100.00;99466.00;4157329;28;20120;-73
2022/10/27 04:56:54;;;;;;;56.88;8.05;;;;;;;5.95;100.00;99468.09;4158393;28;20127;-73
2022/10/27 04:58:55;;;;;;;9.93;5.95;;;;;;;5.99;100.00;99467.13;4162775;28;20072;-73
2022/10/27 05:00:55;;;;;;;12.02;5.88;;;;;;;5.94;100.00;99469.22;4102537;28;20092;-73
2022/10/27 05:02:58;;;;;;;15.82;6.50;;;;;;;5.89;100.00;99467.44;4161306;28;20504;-73
2022/10/27 05:04:58;;;;;;;15.60;6.78;;;;;;;5.79;100.00;99471.31;4159742;28;20095;-72
2022/10/27 05:06:59;;;;;;;12.18;6.53;;;;;;;5.86;100.00;99474.34;4159427;28;20049;-73
2022/10/27 05:08:59;;;;;;;16.45;6.15;;;;;;;5.90;100.00;99474.53;4161139;28;20045;-73
2022/10/27 05:10:59;;;;;;;11.32;5.97;;;;;;;5.95;100.00;99468.09;4157067;28;20325;-73
2022/10/27 05:13:00;;;;;;;9.55;4.90;;;;;;;5.91;100.00;99471.50;4156376;28;20041;-73
2022/10/27 05:15:00;;;;;;;17.42;6.43;;;;;;;5.85;100.00;99478.25;4156676;28;20033;-73
2022/10/27 05:19:57;;;;;;;9.23;5.93;;;;;;;5.71;100.00;99474.03;4157171;28;20068;-72
2022/10/27 05:21:57;;;;;;;10.35;4.97;;;;;;;5.64;100.00;99471.78;4161678;28;20046;-73
2022/10/27 05:23:58;;;;;;;8.43;5.32;;;;;;;5.61;100.00;99473.19;4161434;28;20057;-73
2022/10/27 05:25:58;;;;;;;7.50;4.90;;;;;;;5.59;100.00;99471.91;4156364;28;20069;-73
2022/10/27 05:28:06;;;;;;;13.07;5.32;;;;;;;5.65;100.00;99487.13;4156821;28;20045;-73
2022/10/27 05:30:07;;;;;;;11.18;5.78;;;;;;;5.74;100.00;99493.41;4157181;28;20045;-73
2022/10/27 05:32:08;;;;;;;10.63;4.97;;;;;;;5.75;100.00;99496.97;4159060;28;20121;-73
2022/10/27 05:34:08;;;;;;;8.80;5.28;;;;;;;5.71;100.00;99487.75;4158094;28;20057;-73
2022/10/27 05:36:08;;;;;;;7.55;4.75;;;;;;;5.69;100.00;99487.28;4157831;28;20091;-73
2022/10/27 05:38:09;;;;;;;9.48;5.15;;;;;;;5.62;100.00;99483.06;4156011;28;20568;-73
2022/10/27 05:40:09;;;;;;;7.57;4.70;;;;;;;5.60;100.00;99485.31;4154395;28;20025;-73
2022/10/27 05:42:09;;;;;;;10.40;5.40;;;;;;;5.60;100.00;99482.56;4160442;28;20033;-73
2022/10/27 05:44:10;;;;;;;15.73;6.80;;;;;;;5.58;100.00;99482.09;4156807;28;20030;-73
2022/10/27 05:46:10;;;;;;;9.48;5.63;;;;;;;5.59;100.00;99478.22;4161924;28;20284;-73
2022/10/27 05:48:10;;;;;;;11.77;5.18;;;;;;;5.54;100.00;99474.81;4156369;28;20189;-73
2022/10/27 05:50:10;;;;;;;13.43;5.57;;;;;;;5.53;100.00;99478.69;4160690;28;20033;-73
2022/10/27 05:52:11;;;;;;;9.98;5.20;;;;;;;5.57;100.00;99485.97;4155876;28;20049;-73
2022/10/27 05:54:11;;;;;;;10.55;5.93;;;;;;;5.57;100.00;99483.22;4156372;28;20030;-73
2022/10/27 05:56:11;;;;;;;12.07;4.80;;;;;;;5.57;100.00;99490.66;4159608;28;20053;-73
2022/10/27 05:58:12;;;;;;;9.32;4.78;;;;;;;5.59;100.00;99488.38;4158975;28;20053;-73
2022/10/27 06:00:12;;;;;;;6.65;4.57;;;;;;;5.56;100.00;99489.84;4156889;28;20032;-73
2022/10/27 06:02:12;;;;;;;12.20;5.25;;;;;;;5.52;100.00;99504.50;4155680;28;20040;-73
2022/10/27 06:04:13;;;;;;;8.40;4.18;;;;;;;5.47;100.00;99499.19;4156257;28;20033;-73
2022/10/27 06:06:13;;;;;;;8.32;4.72;;;;;;;5.42;100.00;99499.34;4160545;28;20026;-73
2022/10/27 06:08:13;;;;;;;9.00;5.95;;;;;;;5.49;100.00;99505.16;4156898;28;20041;-73
2022/10/27 06:10:14;;;;;;;8.38;4.57;;;;;;;5.48;100.00;99504.38;4155093;28;20120;-72
2022/10/27 06:12:14;;;;;;;18.73;6.75;;;;;;;5.51;100.00;99497.41;4157857;28;20095;-73
2022/10/27 06:14:14;;;;;;;13.30;4.68;;;;;;;5.43;100.00;99501.75;4157037;28;20044;-73
2022/10/27 06:16:15;;;;;;;6.95;4.10;;;;;;;5.43;100.00;99503.69;4157047;28;20368;-73
2022/10/27 06:18:15;;;;;;;9.20;5.75;;;;;;;5.53;100.00;99501.44;4158779;28;20040;-73
2022/10/27 06:20:15;;;;;;;11.25;6.43;;;;;;;5.58;100.00;99493.06;4160160;28;20103;-73
2022/10/27 06:22:16;;;;;;;12.65;6.65;;;;;;;5.61;100.00;99500.66;4158322;28;20153;-73
2022/10/27 06:24:16;;;;;;;13.35;7.00;;;;;;;5.62;100.00;99502.28;4155490;28;20059;-73
2022/10/27 06:26:16;;;;;;;12.18;6.65;;;;;;;5.56;100.00;99509.06;4156286;28;20065;-72
2022/10/27 06:28:17;;;;;;;14.13;7.07;;;;;;;5.50;100.00;99510.34;4160757;28;20124;-73
2022/10/27 06:30:17;;;;;;;15.07;6.47;;;;;;;5.47;100.00;99513.72;4157521;28;20022;-73
2022/10/27 06:32:17;;;;;;;16.77;7.63;;;;;;;5.48;100.00;99509.84;4156105;28;20328;-73
2022/10/27 06:34:18;;;;;;;12.05;5.70;;;;;;;5.42;100.00;99513.06;4155277;28;20037;-73
2022/10/27 06:36:18;;;;;;;20.95;7.13;;;;;;;5.43;100.00;99512.72;4155459;28;20032;-73
2022/10/27 06:38:18;;;;;;;27.88;6.57;;;;;;;5.49;100.00;99511.47;4155555;28;20458;-73
2022/10/27 06:40:19;;;;;;;10.70;5.82;;;;;;;5.53;100.00;99512.44;4155890;28;20045;-72
2022/10/27 06:42:21;;;;;;;20.10;6.82;;;;;;;5.56;100.00;99508.25;4157609;28;20431;-72
2022/10/27 06:44:22;;;;;;;12.40;5.53;;;;;;;5.59;100.00;99504.84;4154599;28;20417;-73
2022/10/27 06:46:22;;;;;;;9.10;5.72;;;;;;;5.66;100.00;99496.97;4155503;28;20037;-73
2022/10/27 06:48:23;;;;;;;12.27;6.20;;;;;;;5.72;100.00;99503.94;4157484;28;20063;-73
2022/10/27 06:50:23;;;;;;;11.60;5.38;;;;;;;5.78;100.00;99499.06;4156099;28;20048;-73
2022/10/27 06:52:24;;;;;;;17.27;6.55;;;;;;;5.82;100.00;99500.88;4157347;28;20044;-73
2022/10/27 06:54:25;;;;;;;18.17;6.80;;;;;;;5.83;100.00;99499.72;4155622;28;20119;-72
2022/10/27 06:56:25;;;;;;;14.55;7.10;;;;;;;5.82;100.00;99500.88;4155301;28;20125;-73
2022/10/27 06:58:25;;;;;;;11.27;6.30;;;;;;;5.79;100.00;99493.28;4154186;28;20121;-73
2022/10/27 07:00:26;;;;;;;13.25;6.93;;;;;;;5.79;100.00;99500.69;4156159;28;20127;-72
2022/10/27 07:02:26;;;;;;;9.75;6.10;;;;;;;5.80;100.00;99511.38;4155134;28;20539;-73
2022/10/27 07:04:26;;;;;;;24.05;9.15;;;;;;;5.84;100.00;99511.53;4154160;28;20080;-73
2022/10/27 07:06:27;;;;;;;14.65;6.53;;;;;;;5.88;100.00;99504.28;4155300;28;20351;-73
2022/10/27 07:08:27;;;;;;;12.48;6.88;;;;;;;5.97;100.00;99512.53;4155104;28;20045;-73
2022/10/27 07:10:27;;;;;;;13.77;6.78;;;;;;;6.01;100.00;99497.03;4156334;28;20382;-73
2022/10/27 07:12:27;;;;;;;20.15;9.02;;;;;;;6.06;100.00;99494.94;4154270;28;20048;-73
2022/10/27 07:14:28;;;;;;;17.92;9.25;;;;;;;6.11;100.00;99500.25;4158273;28;20050;-73
2022/10/27 07:16:28;;;;;;;17.10;8.70;;;;;;;6.09;100.00;99502.50;4155816;28;20037;-73
2022/10/27 07:18:28;;;;;;;15.63;8.93;;;;;;;6.13;100.00;99509.00;4155049;28;20200;-73
2022/10/27 07:20:29;;;;;;;19.67;10.52;;;;;;;6.12;100.00;99509.28;4159398;28;20060;-73
2022/10/27 07:22:30;;;;;;;20.35;10.48;;;;;;;6.15;100.00;99505.91;4153549;28;20144;-73
2022/10/27 07:24:30;;;;;;;16.83;9.32;;;;;;;6.18;100.00;99505.25;4159536;28;20352;-73
2022/10/27 07:26:30;;;;;;;20.45;10.93;;;;;;;6.20;100.00;99511.22;4158291;28;20434;-72
2022/10/27 07:28:30;;;;;;;12.93;8.73;;;;;;;6.25;100.00;99505.59;4156407;28;20128;-73
2022/10/27 07:30:34;;;;;;;15.40;8.00;;;;;;;6.30;100.00;99508.19;4156151;28;20048;-73
2022/10/27 07:32:34;;;;;;;12.05;8.07;;;;;;;6.38;100.00;99514.81;4157446;28;20099;-73
2022/10/27 07:34:34;;;;;;;14.43;8.10;;;;;;;6.44;100.00;99506.03;4157132;28;20425;-73
2022/10/27 07:36:35;;;;;;;12.50;8.18;;;;;;;6.50;100.00;99503.94;4154274;28;20042;-73
2022/10/27 07:38:37;;;;;;;14.07;8.02;;;;;;;6.56;100.00;99505.41;4155238;28;20756;-72
2022/10/27 07:40:37;;;;;;;10.63;7.68;;;;;;;6.63;100.00;99513.16;4156742;28;20453;-73
2022/10/27 07:42:45;;;;;;;16.33;7.65;;;;;;;6.69;100.00;99517.31;4157861;28;20068;-73
2022/10/27 07:44:45;;;;;;;13.13;8.45;;;;;;;6.79;100.00;99517.00;4156953;28;20088;-73
2022/10/27 07:46:46;;;;;;;15.10;8.63;;;;;;;6.89;100.00;99513.09;4157735;28;20851;-73
2022/10/27 07:48:46;;;;;;;13.98;7.43;;;;;;;6.97;100.00;99512.25;4157504;28;20069;-73
2022/10/27 07:50:46;;;;;;;9.98;6.55;;;;;;;7.06;100.00;99514.97;4159839;28;20779;-73
2022/10/27 07:52:50;;;;;;;11.30;7.03;;;;;;;7.12;100.00;99508.16;4153926;28;20041;-73
2022/10/27 07:54:50;;;;;;;14.57;9.35;;;;;;;7.18;100.00;99513.13;4159168;28;20837;-73
2022/10/27 07:56:51;;;;;;;14.80;9.73;;;;;;;7.26;100.00;99519.72;4156047;28;20076;-73
2022/10/27 07:58:51;;;;;;;19.45;14.60;;;;;;;7.39;100.00;99531.66;4154203;28;20041;-73
2022/10/27 08:00:51;;;;;;;16.02;10.05;;;;;;;7.47;100.00;99528.06;4153667;28;20147;-73
2022/10/27 08:02:52;;;;;;;17.33;9.35;;;;;;;7.55;100.00;99519.75;4157533;28;20242;-73
2022/10/27 08:04:53;;;;;;;13.20;8.07;;;;;;;7.58;100.00;99519.06;4155149;28;20536;-73
2022/10/27 08:06:54;;;;;;;11.63;6.90;;;;;;;7.65;100.00;99513.06;4155612;28;20382;-73
2022/10/27 08:08:54;;;;;;;11.50;6.90;;;;;;;7.80;100.00;99528.19;4156200;28;20029;-73
2022/10/27 08:10:55;;;;;;;11.88;6.85;;;;;;;7.94;100.00;99534.25;4153355;28;20375;-73
2022/10/27 08:12:55;;;;;;;18.27;7.90;;;;;;;8.08;100.00;99543.06;4153798;28;20057;-73
2022/10/27 08:14:56;;;;;;;12.07;7.63;;;;;;;8.17;100.00;99524.50;4153999;28;20389;-73
2022/10/27 08:16:56;;;;;;;10.50;6.88;;;;;;;8.31;100.00;99532.50;4153767;28;20128;-73
2022/10/27 08:18:57;;;;;;;22.25;7.95;;;;;;;8.39;100.00;99533.63;4156244;28;20560;-74
2022/10/27 08:20:57;;;;;;;18.35;7.53;;;;;;;8.53;100.00;99533.34;4155723;28;20038;-73
2022/10/27 08:22:59;;;;;;;13.52;7.88;;;;;;;8.59;100.00;99532.75;4154130;28;20633;-73
2022/10/27 08:24:59;;;;;;;13.60;8.23;;;;;;;8.66;100.00;99540.50;4156327;28;20036;-74
2022/10/27 08:27:00;;;;;;;10.23;7.82;;;;;;;8.72;100.00;99542.72;4160460;28;20406;-74
2022/10/27 08:29:00;;;;;;;13.60;7.65;;;;;;;8.82;100.00;99540.66;4157744;28;20037;-73
2022/10/27 08:31:00;;;;;;;12.63;8.05;;;;;;;8.91;100.00;99544.94;4159621;28;20278;-73
2022/10/27 11:29:30;;;;;;;4.25;1.60;;;;;;;15.86;92.00;99416.75;4154029;28;20137;-74
2022/10/27 11:31:52;;;;;;;3.58;2.05;;;;;;;15.80;92.39;99419.13;4157175;28;20052;-74
2022/10/27 11:34:00;;;;;;;4.75;1.60;;;;;;;15.98;91.13;99428.41;4156230;28;20479;-74
2022/10/27 11:36:06;;;;;;;2.78;1.52;;;;;;;16.06;90.41;99425.66;4156551;28;20041;-74
2022/10/27 11:38:18;;;;;;;3.15;1.50;;;;;;;16.12;90.24;99426.84;4156601;28;20050;-75
2022/10/27 11:40:39;;;;;;;3.05;1.52;;;;;;;16.17;92.24;99421.69;4154529;28;20041;-74
2022/10/27 11:42:51;;;;;;;3.10;1.48;;;;;;;16.15;90.88;99418.50;4153910;28;20527;-74
2022/10/27 11:45:01;;;;;;;5.97;1.40;;;;;;;16.14;90.16;99416.91;4156202;28;20108;-74
2022/10/27 11:47:16;;;;;;;2.83;1.38;;;;;;;16.20;88.48;99412.53;4158434;28;20386;-74
2022/10/27 11:49:26;;;;;;;4.72;1.50;;;;;;;16.29;87.54;99409.38;4160316;28;20091;-74
2022/10/27 11:51:34;;;;;;;4.53;1.60;;;;;;;16.33;88.52;99412.19;4156784;28;20053;-74
2022/10/27 11:53:34;;;;;;;2.67;1.30;;;;;;;16.40;88.93;99406.63;4154931;28;20386;-74
2022/10/27 11:56:05;;;;;;;4.60;1.70;;;;;;;16.41;88.58;99408.22;4155277;28;20042;-75
2022/10/27 11:58:14;;;;;;;1.80;1.20;;;;;;;16.43;88.13;99409.41;4154799;28;20044;-75
2022/10/27 12:00:19;;;;;;;1.73;1.20;;;;;;;16.50;86.27;99405.84;4154445;28;20391;-74
2022/10/27 12:02:35;;;;;;;4.03;1.27;;;;;;;16.48;86.01;99405.44;4155242;28;20248;-74
2022/10/27 12:05:10;;;;;;;4.80;1.60;;;;;;;16.51;87.16;99402.66;4156211;28;20050;-75
2022/10/27 12:07:47;;;;;;;2.53;1.52;;;;;;;16.43;88.21;99398.25;4156090;28;20386;-75
2022/10/27 12:10:10;;;;;;;5.10;1.70;;;;;;;16.42;87.82;99404.22;4154718;28;20041;-75
2022/10/27 12:12:21;;;;;;;3.08;1.63;;;;;;;16.40;87.43;99404.63;4154829;28;20060;-75
2022/10/27 12:14:55;;;;;;;8.13;2.13;;;;;;;16.45;86.67;99401.44;4153403;28;20044;-74
2022/10/27 12:17:02;;;;;;;6.22;1.98;;;;;;;16.43;86.01;99389.06;4159996;28;20531;-75
2022/10/27 12:19:11;;;;;;;6.35;1.90;;;;;;;16.46;86.50;99380.69;4155864;28;20529;-75
2022/10/27 12:21:11;;;;;;;4.45;2.08;;;;;;;16.51;87.13;99390.69;4156989;28;20080;-75
2022/10/27 12:23:18;;;;;;;4.33;1.60;;;;;;;16.50;86.78;99375.91;4153741;28;20060;-75
2022/10/27 12:25:30;;;;;;;4.13;1.83;;;;;;;16.56;86.66;99377.13;4155018;28;20283;-74
2022/10/27 12:27:36;;;;;;;3.70;2.07;;;;;;;16.67;86.83;99373.56;4159489;28;20102;-74
2022/10/27 12:29:42;;;;;;;5.70;2.17;;;;;;;16.70;86.26;99373.56;4155713;28;20052;-74
2022/10/27 12:31:54;;;;;;;4.18;1.98;;;;;;;16.74;85.60;99366.00;4154612;28;20307;-74
2022/10/27 12:33:57;;;;;;;6.70;1.42;;;;;;;16.87;85.54;99366.41;4154331;28;20224;-75
2022/10/27 12:36:15;;;;;;;6.13;1.90;;;;;;;16.89;85.66;99366.03;4154199;28;20053;-75
2022/10/27 12:38:44;;;;;;;4.63;1.92;;;;;;;16.91;86.97;99366.41;4159497;28;20385;-74
2022/10/27 12:40:53;;;;;;;3.55;1.92;;;;;;;16.91;86.01;99358.03;4159417;28;20678;-75